createdAt,value
2023-03-12T00:01:19.986Z,16.23
2023-03-12T00:03:48.770Z,12.20
2023-03-12T00:06:17.338Z,15.75
2023-03-12T00:08:45.940Z,19.67
2023-03-12T00:11:18.612Z,12.10
2023-03-12T00:13:50.905Z,13.02
2023-03-12T00:16:19.352Z,17.30
2023-03-12T00:18:52.996Z,15.57
2023-03-12T00:21:22.415Z,15.02
2023-03-12T00:23:51.510Z,10.85
2023-03-12T00:26:23.074Z,15.65
2023-03-12T00:28:52.362Z,12.18
2023-03-12T00:31:22.868Z,15.98
2023-03-12T00:33:51.604Z,10.82
2023-03-12T00:36:21.540Z,14.23
2023-03-12T00:38:50.196Z,15.52
2023-03-12T00:41:20.869Z,13.40
2023-03-12T00:43:49.609Z,10.18
2023-03-12T00:46:18.802Z,12.07
2023-03-12T00:48:47.599Z,18.95
2023-03-12T00:51:16.489Z,14.32
2023-03-12T00:53:44.848Z,19.08
2023-03-12T00:56:13.188Z,16.25
2023-03-12T00:58:43.598Z,15.05
2023-03-12T01:01:12.621Z,14.00
2023-03-12T01:03:41.304Z,14.82
2023-03-12T01:06:09.631Z,15.68
2023-03-12T01:08:38.003Z,18.50
2023-03-12T01:11:06.545Z,21.33
2023-03-12T01:13:34.999Z,17.92
2023-03-12T01:16:05.122Z,15.00
2023-03-12T01:18:33.485Z,23.10
2023-03-12T01:21:02.026Z,17.55
2023-03-12T01:23:30.612Z,17.90
2023-03-12T01:26:00.555Z,22.00
2023-03-12T01:28:28.910Z,21.67
2023-03-12T01:30:57.202Z,23.08
2023-03-12T01:33:26.911Z,16.27
2023-03-12T01:35:57.265Z,17.38
2023-03-12T01:38:25.734Z,15.75
2023-03-12T01:40:54.092Z,21.40
2023-03-12T01:43:29.675Z,18.05
2023-03-12T01:46:24.237Z,17.90
2023-03-12T01:49:00.352Z,18.95
2023-03-12T01:51:33.015Z,15.55
2023-03-12T01:54:03.963Z,16.58
2023-03-12T01:56:36.778Z,18.33
2023-03-12T01:59:10.596Z,19.30
2023-03-12T02:01:39.981Z,18.05
2023-03-12T02:04:10.602Z,24.70
2023-03-12T02:06:43.876Z,18.80
2023-03-12T02:09:13.559Z,16.85
2023-03-12T02:11:42.138Z,20.92
2023-03-12T02:14:10.719Z,17.02
2023-03-12T02:16:39.182Z,18.20
2023-03-12T02:19:20.590Z,27.80
2023-03-12T02:21:50.018Z,17.63
2023-03-12T02:24:30.368Z,19.95
2023-03-12T02:27:00.860Z,21.15
2023-03-12T02:29:33.248Z,17.55
2023-03-12T02:32:04.763Z,19.40
2023-03-12T02:34:33.249Z,23.73
2023-03-12T02:37:01.483Z,28.15
2023-03-12T02:39:29.843Z,20.40
2023-03-12T02:42:01.600Z,24.33
2023-03-12T02:44:33.399Z,25.90
2023-03-12T02:47:03.743Z,18.08
2023-03-12T02:49:34.326Z,19.52
2023-03-12T02:52:03.378Z,20.00
2023-03-12T02:54:32.406Z,17.25
2023-03-12T02:57:02.530Z,17.92
2023-03-12T02:59:33.358Z,18.23
2023-03-12T03:02:03.485Z,18.98
2023-03-12T03:04:34.880Z,17.73
2023-03-12T03:07:03.418Z,17.15
2023-03-12T03:09:32.179Z,12.13
2023-03-12T03:12:02.124Z,14.55
2023-03-12T03:14:33.541Z,23.02
2023-03-12T03:17:01.963Z,18.98
2023-03-12T03:19:30.321Z,19.50
2023-03-12T03:21:58.922Z,12.18
2023-03-12T03:24:27.613Z,16.20
2023-03-12T03:26:56.179Z,16.58
2023-03-12T03:29:25.954Z,16.48
2023-03-12T03:31:54.229Z,16.13
2023-03-12T03:34:22.683Z,13.82
2023-03-12T03:36:51.014Z,19.42
2023-03-12T03:39:20.312Z,16.92
2023-03-12T03:41:49.015Z,17.35
2023-03-12T03:44:22.258Z,14.98
2023-03-12T03:46:53.755Z,13.55
2023-03-12T03:49:22.059Z,15.38
2023-03-12T03:51:51.825Z,14.95
2023-03-12T03:54:27.231Z,16.42
2023-03-12T03:56:55.609Z,13.23
2023-03-12T03:59:26.802Z,13.80
2023-03-12T04:01:57.100Z,19.13
2023-03-12T04:04:26.534Z,17.88
2023-03-12T04:06:55.129Z,9.68
2023-03-12T04:09:24.023Z,22.65
2023-03-12T04:11:52.480Z,16.00
2023-03-12T04:14:21.197Z,14.82
2023-03-12T04:16:49.816Z,12.27
2023-03-12T04:19:19.756Z,19.42
2023-03-12T04:21:48.027Z,12.57
2023-03-12T04:24:18.726Z,11.57
2023-03-12T04:26:47.633Z,11.38
2023-03-12T04:29:17.399Z,12.15
2023-03-12T04:31:45.960Z,11.10
2023-03-12T04:34:14.881Z,11.65
2023-03-12T04:36:48.465Z,9.73
2023-03-12T04:39:19.171Z,19.00
2023-03-12T04:41:48.883Z,14.98
2023-03-12T04:44:17.951Z,14.55
2023-03-12T04:46:46.482Z,15.40
2023-03-12T04:49:18.555Z,10.70
2023-03-12T04:51:48.920Z,12.68
2023-03-12T04:54:17.564Z,9.63
2023-03-12T04:56:45.980Z,11.05
2023-03-12T04:59:14.571Z,13.35
2023-03-12T05:01:45.289Z,10.05
2023-03-12T05:04:20.059Z,14.90
2023-03-12T05:06:50.075Z,11.07
2023-03-12T05:09:18.340Z,9.85
2023-03-12T05:11:46.814Z,9.00
2023-03-12T05:14:17.990Z,11.23
2023-03-12T05:16:47.936Z,9.13
2023-03-12T05:19:16.746Z,12.35
2023-03-12T05:21:45.186Z,10.88
2023-03-12T05:24:14.945Z,10.15
2023-03-12T05:26:44.344Z,10.68
2023-03-12T05:29:18.764Z,14.43
2023-03-12T05:31:47.255Z,9.90
2023-03-12T05:34:16.011Z,12.65
2023-03-12T05:36:46.388Z,12.00
2023-03-12T05:39:20.296Z,12.05
2023-03-12T05:41:54.000Z,10.32
2023-03-12T05:44:26.429Z,13.07
2023-03-12T05:46:58.844Z,8.75
2023-03-12T05:49:28.251Z,9.40
2023-03-12T05:51:58.698Z,12.02
2023-03-12T05:54:29.301Z,11.45
2023-03-12T05:56:58.037Z,10.23
2023-03-12T05:59:28.065Z,10.57
2023-03-12T06:01:57.258Z,9.50
2023-03-12T06:04:26.835Z,14.05
2023-03-12T06:06:55.384Z,10.55
2023-03-12T06:09:24.609Z,9.65
2023-03-12T06:11:55.556Z,7.97
2023-03-12T06:14:23.956Z,8.57
2023-03-12T06:16:52.705Z,8.20
2023-03-12T06:19:21.650Z,15.55
2023-03-12T06:21:51.811Z,9.77
2023-03-12T06:24:30.054Z,10.63
2023-03-12T06:27:08.667Z,11.05
2023-03-12T06:29:36.927Z,10.57
2023-03-12T06:32:05.404Z,9.38
2023-03-12T06:34:34.112Z,11.98
2023-03-12T06:37:04.424Z,8.10
2023-03-12T06:39:33.731Z,14.38
2023-03-12T06:42:02.014Z,7.43
2023-03-12T06:44:32.134Z,7.07
2023-03-12T06:47:00.521Z,8.35
2023-03-12T06:49:32.247Z,6.13
2023-03-12T06:52:00.646Z,11.40
2023-03-12T06:54:28.914Z,7.03
2023-03-12T06:56:59.163Z,10.13
2023-03-12T06:59:27.514Z,8.10
2023-03-12T07:01:57.286Z,8.52
2023-03-12T07:04:27.988Z,6.25
2023-03-12T07:06:56.471Z,10.07
2023-03-12T07:09:24.863Z,8.50
2023-03-12T07:11:56.146Z,9.27
2023-03-12T07:14:24.756Z,8.80
2023-03-12T07:16:53.133Z,5.60
2023-03-12T07:19:23.015Z,8.75
2023-03-12T07:21:51.251Z,9.70
2023-03-12T07:24:19.628Z,7.07
2023-03-12T07:26:47.960Z,8.98
2023-03-12T07:29:19.645Z,7.55
2023-03-12T07:31:48.126Z,9.88
2023-03-12T07:34:17.835Z,7.82
2023-03-12T07:36:47.955Z,5.30
2023-03-12T07:39:16.399Z,7.72
2023-03-12T07:41:44.722Z,8.02
2023-03-12T07:44:14.195Z,5.95
2023-03-12T07:46:42.614Z,6.35
2023-03-12T07:49:11.344Z,6.15
2023-03-12T07:51:40.008Z,6.80
2023-03-12T07:54:10.509Z,7.13
2023-03-12T07:56:41.964Z,5.88
2023-03-12T07:59:10.981Z,8.35
2023-03-12T08:01:39.561Z,6.60
2023-03-12T08:04:08.049Z,9.05
2023-03-12T08:06:37.784Z,6.43
2023-03-12T08:09:06.079Z,6.70
2023-03-12T08:11:36.958Z,6.25
2023-03-12T08:14:05.670Z,5.00
2023-03-12T08:16:34.247Z,8.48
2023-03-12T08:19:02.787Z,6.60
2023-03-12T08:21:31.015Z,5.82
2023-03-12T08:23:59.512Z,4.55
2023-03-12T08:26:27.896Z,4.50
2023-03-12T08:29:00.310Z,5.40
2023-03-12T08:31:29.062Z,11.05
2023-03-12T08:33:57.309Z,4.50
2023-03-12T08:36:25.716Z,8.40
2023-03-12T08:38:54.120Z,4.78
2023-03-12T08:41:22.635Z,4.60
2023-03-12T08:43:50.985Z,5.93
2023-03-12T08:46:21.179Z,4.97
2023-03-12T08:48:49.406Z,3.60
2023-03-12T08:51:17.855Z,8.65
2023-03-12T08:53:46.340Z,3.85
2023-03-12T08:56:14.790Z,7.28
2023-03-12T08:58:43.073Z,5.80
2023-03-12T09:01:12.306Z,4.03
2023-03-12T09:03:42.361Z,5.68
2023-03-12T09:06:16.219Z,5.63
2023-03-12T09:08:45.920Z,5.00
2023-03-12T09:11:15.564Z,3.38
2023-03-12T09:14:08.544Z,4.85
2023-03-12T09:16:34.590Z,6.97
2023-03-12T09:19:05.071Z,4.50
2023-03-12T09:21:33.349Z,7.22
2023-03-12T09:24:01.661Z,9.93
2023-03-12T09:26:30.076Z,6.65
2023-03-12T09:28:59.333Z,8.85
2023-03-12T09:31:28.007Z,5.18
2023-03-12T09:33:56.271Z,7.30
2023-03-12T09:36:26.036Z,5.10
2023-03-12T09:38:55.076Z,8.10
2023-03-12T09:41:26.671Z,15.25
2023-03-12T09:43:59.989Z,6.07
2023-03-12T09:46:32.261Z,4.97
2023-03-12T09:49:07.104Z,5.93
2023-03-12T09:51:41.814Z,6.68
2023-03-12T09:54:24.835Z,11.55
2023-03-12T09:56:56.203Z,12.80
2023-03-12T09:59:24.912Z,4.90
2023-03-12T10:01:57.608Z,6.13
2023-03-12T10:04:52.293Z,5.10
2023-03-12T10:07:33.925Z,5.50
2023-03-12T10:10:25.212Z,3.85
2023-03-12T10:13:08.748Z,7.47
2023-03-12T10:15:45.474Z,5.88
2023-03-12T10:18:27.666Z,5.35
2023-03-12T10:21:19.126Z,6.75
2023-03-12T10:24:04.742Z,4.82
2023-03-12T10:26:40.616Z,6.28
2023-03-12T10:29:15.690Z,6.05
2023-03-12T10:31:53.131Z,6.57
2023-03-12T10:34:26.643Z,4.45
2023-03-12T10:36:58.381Z,8.02
2023-03-12T10:39:28.132Z,4.93
2023-03-12T10:41:59.543Z,4.07
2023-03-12T10:44:28.918Z,4.20
2023-03-12T10:47:07.780Z,4.00
2023-03-12T10:49:37.286Z,4.57
2023-03-12T10:52:15.496Z,7.07
2023-03-12T10:54:46.536Z,7.15
2023-03-12T10:57:16.764Z,3.80
2023-03-12T10:59:48.698Z,6.28
2023-03-12T11:02:40.851Z,4.78
2023-03-12T11:05:22.942Z,7.40
2023-03-12T11:07:51.942Z,3.72
2023-03-12T11:10:39.718Z,7.55
2023-03-12T11:13:24.054Z,6.03
2023-03-12T11:15:53.031Z,5.50
2023-03-12T11:18:28.001Z,5.45
2023-03-12T11:20:59.392Z,5.03
2023-03-12T11:23:31.451Z,5.60
2023-03-12T11:26:15.395Z,7.25
2023-03-12T11:28:48.316Z,4.10
2023-03-12T11:31:23.180Z,4.65
2023-03-12T11:33:55.598Z,3.83
2023-03-12T11:36:39.222Z,3.33
2023-03-12T11:39:22.107Z,4.00
2023-03-12T11:42:08.062Z,4.10
2023-03-12T11:44:42.656Z,5.88
2023-03-12T11:47:27.318Z,5.97
2023-03-12T11:50:05.928Z,3.90
2023-03-12T11:52:52.026Z,4.57
2023-03-12T11:55:40.547Z,5.57
2023-03-12T11:58:48.328Z,6.30
2023-03-12T12:01:27.234Z,5.10
2023-03-12T12:04:37.322Z,6.15
2023-03-12T12:07:15.446Z,5.50
2023-03-12T12:09:58.037Z,5.07
2023-03-12T12:12:41.553Z,6.55
2023-03-12T12:15:20.745Z,12.43
2023-03-12T12:18:00.793Z,5.00
2023-03-12T12:20:39.432Z,5.97
2023-03-12T12:23:29.637Z,4.07
2023-03-12T12:26:10.681Z,9.25
2023-03-12T12:29:18.447Z,7.47
2023-03-12T12:31:51.823Z,5.82
2023-03-12T12:34:39.194Z,5.18
2023-03-12T12:37:24.178Z,5.70
2023-03-12T12:39:59.590Z,3.88
2023-03-12T12:42:33.352Z,8.65
2023-03-12T12:45:07.867Z,9.93
2023-03-12T12:47:42.185Z,6.85
2023-03-12T12:50:18.907Z,6.85
2023-03-12T12:52:52.319Z,4.70
2023-03-12T12:55:26.972Z,7.47
2023-03-12T12:58:03.174Z,7.35
2023-03-12T13:00:44.790Z,10.82
2023-03-12T13:03:17.717Z,7.10
2023-03-12T13:05:56.484Z,3.90
2023-03-12T13:09:15.463Z,8.25
2023-03-12T13:11:59.127Z,9.15
2023-03-12T13:14:39.577Z,3.65
2023-03-12T13:17:25.485Z,6.65
2023-03-12T13:20:08.842Z,14.05
2023-03-12T13:23:10.678Z,5.68
2023-03-12T13:25:50.097Z,3.85
2023-03-12T13:28:42.064Z,3.88
2023-03-12T13:31:38.284Z,4.43
2023-03-12T13:34:42.805Z,3.75
2023-03-12T13:37:28.177Z,4.35
2023-03-12T13:40:07.313Z,4.93
2023-03-12T13:42:41.985Z,6.90
2023-03-12T13:45:27.874Z,8.98
2023-03-12T13:48:00.808Z,4.65
2023-03-12T13:50:30.794Z,3.83
2023-03-12T13:53:06.179Z,4.65
2023-03-12T13:55:39.361Z,7.10
2023-03-12T13:58:10.908Z,4.43
2023-03-12T14:00:42.830Z,5.15
2023-03-12T14:03:17.379Z,6.25
2023-03-12T14:05:51.510Z,9.98
2023-03-12T14:08:41.277Z,5.82
2023-03-12T14:11:31.504Z,5.50
2023-03-12T14:17:20.308Z,8.50
2023-03-12T14:19:52.296Z,7.95
2023-03-12T14:22:24.044Z,5.97
2023-03-12T14:24:57.782Z,4.00
2023-03-12T14:27:31.275Z,9.25
2023-03-12T14:30:12.711Z,5.53
2023-03-12T14:32:44.011Z,4.40
2023-03-12T14:35:21.818Z,8.48
2023-03-12T14:37:58.576Z,7.63
2023-03-12T14:40:35.923Z,6.57
2023-03-12T14:43:22.844Z,4.15
2023-03-12T14:45:53.257Z,5.45
2023-03-12T14:48:29.081Z,4.88
2023-03-12T14:50:58.456Z,10.32
2023-03-12T14:53:28.732Z,6.28
2023-03-12T14:56:14.482Z,4.82
2023-03-12T14:58:48.450Z,5.10
2023-03-12T15:01:20.497Z,5.38
2023-03-12T15:03:52.349Z,9.93
2023-03-12T15:06:27.663Z,3.40
2023-03-12T15:08:56.160Z,4.05
2023-03-12T15:11:28.042Z,5.25
2023-03-12T15:14:03.741Z,7.07
2023-03-12T15:16:32.383Z,3.83
2023-03-12T15:19:01.412Z,5.05
2023-03-12T15:21:29.862Z,10.52
2023-03-12T15:23:58.380Z,6.90
2023-03-12T15:26:32.198Z,5.45
2023-03-12T15:29:03.782Z,8.60
2023-03-12T15:31:43.665Z,6.90
2023-03-12T15:34:14.000Z,6.05
2023-03-12T15:36:49.793Z,7.43
2023-03-12T15:39:27.939Z,5.50
2023-03-12T15:42:01.177Z,5.43
2023-03-12T15:44:38.156Z,6.65
2023-03-12T15:47:15.749Z,7.15
2023-03-12T15:49:44.905Z,3.95
2023-03-12T15:52:32.007Z,7.70
2023-03-12T15:55:20.931Z,6.25
2023-03-12T15:57:50.858Z,4.82
2023-03-12T16:00:28.977Z,6.50
2023-03-12T16:02:59.651Z,4.22
2023-03-12T16:05:31.338Z,4.30
2023-03-12T16:08:02.869Z,9.32
2023-03-12T16:10:36.434Z,8.63
2023-03-12T16:13:06.160Z,4.72
2023-03-12T16:15:39.153Z,11.75
2023-03-12T16:18:14.113Z,8.93
2023-03-12T16:20:42.854Z,3.75
2023-03-12T16:23:11.267Z,5.65
2023-03-12T16:25:43.467Z,5.05
2023-03-12T16:28:15.630Z,6.22
2023-03-12T16:30:47.180Z,10.40
2023-03-12T16:33:17.468Z,11.48
2023-03-12T16:35:46.260Z,6.88
2023-03-12T16:38:15.059Z,6.80
2023-03-12T16:40:46.769Z,14.80
2023-03-12T16:43:18.887Z,6.07
2023-03-12T16:45:50.596Z,8.00
2023-03-12T16:48:21.471Z,10.38
2023-03-12T16:50:51.280Z,15.80
2023-03-12T16:53:20.859Z,5.13
2023-03-12T16:55:52.372Z,6.35
2023-03-12T16:58:22.599Z,7.10
2023-03-12T17:00:53.333Z,7.07
2023-03-12T17:03:29.074Z,5.32
2023-03-12T17:05:57.570Z,8.20
2023-03-12T17:08:26.224Z,4.60
2023-03-12T17:10:55.509Z,8.20
2023-03-12T17:13:26.279Z,5.40
2023-03-12T17:15:57.085Z,8.63
2023-03-12T17:18:25.954Z,4.45
2023-03-12T17:20:55.492Z,4.55
2023-03-12T17:23:24.706Z,8.77
2023-03-12T17:25:53.100Z,5.07
2023-03-12T17:28:21.745Z,6.93
2023-03-12T17:30:50.176Z,6.35
2023-03-12T17:33:20.693Z,5.30
2023-03-12T17:35:59.070Z,9.77
2023-03-12T17:38:28.319Z,7.00
2023-03-12T17:40:56.973Z,5.07
2023-03-12T17:43:25.810Z,6.78
2023-03-12T17:45:55.389Z,8.70
2023-03-12T17:48:25.461Z,7.22
2023-03-12T17:50:53.996Z,7.30
2023-03-12T17:53:22.340Z,6.13
2023-03-12T17:55:50.832Z,18.80
2023-03-12T17:58:19.452Z,10.52
2023-03-12T18:00:50.753Z,10.50
2023-03-12T18:03:19.122Z,5.97
2023-03-12T18:05:51.198Z,9.93
2023-03-12T18:08:19.908Z,10.38
2023-03-12T18:10:49.325Z,7.72
2023-03-12T18:13:18.603Z,8.13
2023-03-12T18:15:53.547Z,8.32
2023-03-12T18:18:22.448Z,9.77
2023-03-12T18:20:52.508Z,12.82
2023-03-12T18:23:21.081Z,10.07
2023-03-12T18:25:49.459Z,15.75
2023-03-12T18:28:18.603Z,12.00
2023-03-12T18:30:47.784Z,10.70
2023-03-12T18:33:16.331Z,14.40
2023-03-12T18:35:46.745Z,11.82
2023-03-12T18:38:21.205Z,8.50
2023-03-12T18:40:50.008Z,16.08
2023-03-12T18:43:20.203Z,17.33
2023-03-12T18:45:53.252Z,14.25
2023-03-12T18:48:21.519Z,14.27
2023-03-12T18:50:53.777Z,18.02
2023-03-12T18:53:23.499Z,18.10
2023-03-12T18:55:53.920Z,18.75
2023-03-12T18:58:22.605Z,22.88
2023-03-12T19:00:52.637Z,11.68
2023-03-12T19:03:21.495Z,27.25
2023-03-12T19:05:50.065Z,20.85
2023-03-12T19:08:20.760Z,20.75
2023-03-12T19:10:50.540Z,19.25
2023-03-12T19:13:18.849Z,21.42
2023-03-12T19:15:47.268Z,18.70
2023-03-12T19:18:15.538Z,23.88
2023-03-12T19:20:43.919Z,21.77
2023-03-12T19:23:12.254Z,18.10
2023-03-12T19:25:40.772Z,27.10
2023-03-12T19:28:10.659Z,21.52
2023-03-12T19:30:39.032Z,23.77
2023-03-12T19:33:07.594Z,18.88
2023-03-12T19:35:39.192Z,21.30
2023-03-12T19:38:08.138Z,21.55
2023-03-12T19:40:36.997Z,23.58
2023-03-12T19:43:05.330Z,18.48
2023-03-12T19:45:37.061Z,18.38
2023-03-12T19:48:05.788Z,17.98
2023-03-12T19:50:34.130Z,24.92
2023-03-12T19:53:02.671Z,27.95
2023-03-12T19:55:31.019Z,21.20
2023-03-12T19:57:59.434Z,23.25
2023-03-12T20:00:27.919Z,19.50
2023-03-12T20:02:59.599Z,20.42
2023-03-12T20:05:28.154Z,16.92
2023-03-12T20:07:56.706Z,20.05
2023-03-12T20:10:25.985Z,18.23
2023-03-12T20:12:54.389Z,15.70
2023-03-12T20:15:22.696Z,17.63
2023-03-12T20:17:54.664Z,24.98
2023-03-12T20:20:24.620Z,22.23
2023-03-12T20:22:53.005Z,18.45
2023-03-12T20:25:22.882Z,23.05
2023-03-12T20:27:51.221Z,20.85
2023-03-12T20:30:20.094Z,23.92
2023-03-12T20:32:48.451Z,20.13
2023-03-12T20:35:16.945Z,29.35
2023-03-12T20:37:46.742Z,21.17
2023-03-12T20:40:15.325Z,23.98
2023-03-12T20:42:43.669Z,19.02
2023-03-12T20:45:12.731Z,22.80
2023-03-12T20:47:41.367Z,19.17
2023-03-12T20:50:10.820Z,19.38
2023-03-12T20:52:39.157Z,25.27
2023-03-12T20:55:09.610Z,18.92
2023-03-12T20:57:38.902Z,26.90
2023-03-12T21:00:08.589Z,21.17
2023-03-12T21:02:36.929Z,22.85
2023-03-12T21:05:05.512Z,19.73
2023-03-12T21:07:33.795Z,33.63
2023-03-12T21:10:02.074Z,30.00
2023-03-12T21:12:31.851Z,25.35
2023-03-12T21:15:06.245Z,34.67
2023-03-12T21:17:35.108Z,25.02
2023-03-12T21:20:04.071Z,22.15
2023-03-12T21:22:32.981Z,22.48
2023-03-12T21:25:01.624Z,24.23
2023-03-12T21:27:41.188Z,28.33
2023-03-12T21:30:16.902Z,27.33
2023-03-12T21:32:45.342Z,31.88
2023-03-12T21:35:13.763Z,28.00
2023-03-12T21:37:42.218Z,33.03
2023-03-12T21:40:12.913Z,34.45
2023-03-12T21:42:42.674Z,33.60
2023-03-12T21:45:12.088Z,36.78
2023-03-12T21:47:41.296Z,28.70
2023-03-12T21:50:11.161Z,30.15
2023-03-12T21:52:43.356Z,35.72
2023-03-12T21:55:12.486Z,30.88
2023-03-12T21:57:42.331Z,33.08
2023-03-12T22:00:13.322Z,29.35
2023-03-12T22:02:42.136Z,31.65
2023-03-12T22:05:11.129Z,30.50
2023-03-12T22:07:39.964Z,35.17
2023-03-12T22:10:11.981Z,33.67
2023-03-12T22:12:40.614Z,31.40
2023-03-12T22:15:11.439Z,41.35
2023-03-12T22:17:39.836Z,40.50
2023-03-12T22:20:09.927Z,40.15
2023-03-12T22:22:38.273Z,33.05
2023-03-12T22:25:07.347Z,29.30
2023-03-12T22:27:35.733Z,48.72
2023-03-12T22:30:04.195Z,38.70
2023-03-12T22:32:33.983Z,31.40
2023-03-12T22:35:02.939Z,35.10
2023-03-12T22:37:31.183Z,34.08
2023-03-12T22:40:01.630Z,30.48
2023-03-12T22:42:29.941Z,38.35
2023-03-12T22:44:58.477Z,28.55
2023-03-12T22:47:26.776Z,30.20
2023-03-12T22:49:58.449Z,43.53
2023-03-12T22:52:26.806Z,35.05
2023-03-12T22:54:57.129Z,37.63
2023-03-12T22:57:25.396Z,36.28
2023-03-12T22:59:53.731Z,39.10
2023-03-12T23:02:22.056Z,37.22
2023-03-12T23:04:50.338Z,30.55
2023-03-12T23:07:20.110Z,43.67
2023-03-12T23:09:49.061Z,35.30
2023-03-12T23:12:17.326Z,31.20
2023-03-12T23:14:45.572Z,34.72
2023-03-12T23:17:13.867Z,33.15
2023-03-12T23:19:43.337Z,28.65
2023-03-12T23:22:12.483Z,26.08
2023-03-12T23:24:42.136Z,33.13
2023-03-12T23:27:10.411Z,30.75
2023-03-12T23:29:38.676Z,34.67
2023-03-12T23:32:07.747Z,26.88
2023-03-12T23:34:36.449Z,23.67
2023-03-12T23:37:05.168Z,22.58
2023-03-12T23:39:42.141Z,31.15
2023-03-12T23:42:14.862Z,19.73
2023-03-12T23:44:43.172Z,23.80
2023-03-12T23:47:11.449Z,25.02
2023-03-12T23:49:40.359Z,26.58
2023-03-12T23:52:08.687Z,22.55
2023-03-12T23:54:37.081Z,21.35
2023-03-12T23:57:05.618Z,28.98
2023-03-12T23:59:35.266Z,28.95
